Time;durP1;ratioP1;P1;durP2;ratioP2;P2;SDS_P1;SDS_P2;PMS_P1;PMS_P2;Temp;Humidity;BMP_temperature;BMP_pressure;BME280_temperature;BME280_humidity;BME280_pressure;Samples;Min_cycle;Max_cycle;Signal;HPM_P1;HPM_P2
2023/01/29 00:01:43;;;;;;;7.50;5.73;;;-0.30;99.90;;;;;;4972720;28;20555;-53
2023/01/29 00:04:10;;;;;;;10.97;6.60;;;-0.20;99.90;;;;;;4972643;28;20480;-53
2023/01/29 00:06:36;;;;;;;7.87;6.07;;;-0.20;99.90;;;;;;4972872;28;21026;-52
2023/01/29 00:09:05;;;;;;;10.13;6.53;;;-0.20;99.90;;;;;;4976352;28;20485;-52
2023/01/29 00:11:33;;;;;;;6.83;6.13;;;-0.20;99.90;;;;;;4978282;28;20524;-53
2023/01/29 00:13:59;;;;;;;7.37;6.60;;;-0.20;99.90;;;;;;4970730;28;20517;-53
2023/01/29 00:16:26;;;;;;;6.80;6.20;;;-0.20;99.90;;;;;;4971494;28;20893;-53
2023/01/29 00:18:52;;;;;;;10.23;6.90;;;-0.30;99.90;;;;;;4972698;28;20541;-53
2023/01/29 00:21:21;;;;;;;11.37;6.63;;;-0.30;99.90;;;;;;4972544;28;20504;-53
2023/01/29 00:23:49;;;;;;;7.10;6.50;;;-0.30;99.90;;;;;;4973174;28;20452;-53
2023/01/29 00:26:16;;;;;;;6.73;6.13;;;-0.40;99.90;;;;;;4973011;28;20484;-53
2023/01/29 00:28:44;;;;;;;10.73;7.67;;;-0.50;99.90;;;;;;4969260;28;20571;-53
2023/01/29 00:31:13;;;;;;;7.53;6.83;;;-0.50;99.90;;;;;;4971394;28;20586;-52
2023/01/29 00:33:39;;;;;;;6.83;6.13;;;-0.50;99.90;;;;;;4970139;28;20950;-53
2023/01/29 00:36:08;;;;;;;7.03;6.33;;;-0.60;99.90;;;;;;4975073;28;20503;-53
2023/01/29 00:38:36;;;;;;;7.67;6.83;;;-0.60;99.90;;;;;;4975763;28;20472;-53
2023/01/29 00:46:36;;;;;;;9.87;7.00;;;-0.70;99.90;;;;;;4974879;28;20466;-53
2023/01/29 00:49:03;;;;;;;7.17;6.47;;;-0.70;99.90;;;;;;4973861;28;20571;-53
2023/01/29 00:51:29;;;;;;;7.80;7.03;;;-0.70;99.90;;;;;;4966634;28;20571;-53
2023/01/29 00:53:57;;;;;;;10.23;7.60;;;-0.70;99.90;;;;;;4970024;28;20554;-53
2023/01/29 00:56:24;;;;;;;8.27;7.57;;;-0.60;99.90;;;;;;4968991;28;20463;-54
2023/01/29 00:58:52;;;;;;;11.23;8.20;;;-0.60;99.90;;;;;;4973450;28;20527;-53
2023/01/29 01:03:04;;;;;;;9.80;8.53;;;-0.60;99.90;;;;;;4974429;28;20596;-52
2023/01/29 01:04:06;;;;;;;8.90;8.00;;;-0.50;99.90;;;;;;4970683;28;20467;-53
2023/01/29 01:06:32;;;;;;;10.00;8.07;;;-0.50;99.90;;;;;;4968627;28;20465;-53
2023/01/29 01:11:43;;;;;;;9.20;8.30;;;-0.40;99.90;;;;;;4982198;28;20495;-54
2023/01/29 01:14:11;;;;;;;9.07;8.10;;;-0.40;99.90;;;;;;4990427;28;20440;-53
2023/01/29 01:16:38;;;;;;;11.30;9.40;;;-0.40;1.40;;;;;;4985652;28;20468;-54
2023/01/29 01:19:04;;;;;;;9.37;8.37;;;-0.30;99.90;;;;;;4994919;28;20457;-53
2023/01/29 01:21:32;;;;;;;10.70;9.00;;;-0.30;99.90;;;;;;4987516;28;20484;-58
2023/01/29 01:23:58;;;;;;;10.70;9.60;;;-0.30;99.90;;;;;;4972745;28;20556;-53
2023/01/29 01:26:26;;;;;;;11.67;9.37;;;-0.30;99.90;;;;;;4969055;28;20568;-53
2023/01/29 01:28:52;;;;;;;11.20;10.07;;;-0.30;99.90;;;;;;4973409;28;20487;-54
2023/01/29 01:31:20;;;;;;;10.23;8.93;;;-0.30;99.90;;;;;;4974043;28;20502;-54
2023/01/29 01:33:46;;;;;;;13.67;9.80;;;-0.30;99.90;;;;;;4969269;28;20466;-54
2023/01/29 01:36:15;;;;;;;10.87;9.80;;;-0.30;99.90;;;;;;4965888;28;20500;-51
2023/01/29 01:38:44;;;;;;;12.67;9.77;;;-0.20;99.90;;;;;;4964914;28;20461;-53
2023/01/29 01:41:12;;;;;;;12.00;10.57;;;-0.20;99.90;;;;;;4967239;28;20484;-53
2023/01/29 01:43:49;;;;;;;11.33;10.07;;;-0.20;99.90;;;;;;4973023;28;20441;-53
2023/01/29 01:46:16;;;;;;;11.50;10.40;;;-0.20;99.90;;;;;;4960021;28;20487;-53
2023/01/29 01:48:46;;;;;;;12.77;10.43;;;-0.20;99.90;;;;;;4972827;28;20520;-53
2023/01/29 01:51:15;;;;;;;11.67;10.07;;;-0.20;99.90;;;;;;4968003;28;20492;-53
2023/01/29 01:53:44;;;;;;;15.97;11.20;;;-0.20;99.90;;;;;;4972598;28;20460;-54
2023/01/29 01:56:15;;;;;;;13.20;10.60;;;-0.20;99.90;;;;;;4974579;28;20487;-52
2023/01/29 01:58:45;;;;;;;12.60;11.40;;;-0.20;99.90;;;;;;4974519;28;20472;-53
2023/01/29 02:01:13;;;;;;;11.80;10.50;;;-0.20;99.90;;;;;;4974363;28;20480;-53
2023/01/29 02:09:34;;;;;;;15.03;11.00;;;-0.10;99.90;;;;;;4967743;28;20516;-53
2023/01/29 02:12:01;;;;;;;16.27;11.87;;;-0.10;99.90;;;;;;4975038;28;21196;-53
2023/01/29 02:14:27;;;;;;;13.43;12.13;;;-0.10;99.90;;;;;;4971647;28;20552;-52
2023/01/29 02:16:54;;;;;;;16.37;11.53;;;-0.10;99.90;;;;;;4978615;28;20482;-53
2023/01/29 02:19:31;;;;;;;13.57;12.27;;;-0.10;99.90;;;;;;4979918;28;20502;-53
2023/01/29 02:22:28;;;;;;;17.47;13.10;;;-0.10;99.90;;;;;;4972410;28;20480;-53
2023/01/29 02:25:22;;;;;;;15.57;12.60;;;-0.10;99.90;;;;;;4977526;28;20468;-53
2023/01/29 02:28:20;;;;;;;15.60;13.27;;;-0.10;99.90;;;;;;5002186;28;20443;-53
2023/01/29 02:30:52;;;;;;;18.03;13.20;;;-0.10;99.90;;;;;;5004980;28;20993;-53
2023/01/29 02:33:26;;;;;;;14.43;13.00;;;-0.10;99.90;;;;;;4977993;28;20504;-53
2023/01/29 02:35:58;;;;;;;21.47;12.13;;;0.00;99.90;;;;;;4973148;28;20493;-54
2023/01/29 02:38:30;;;;;;;14.97;13.20;;;0.00;99.90;;;;;;4973816;28;20472;-53
2023/01/29 02:41:01;;;;;;;20.77;14.43;;;0.00;99.90;;;;;;4969673;28;20512;-53
2023/01/29 02:43:37;;;;;;;14.70;13.20;;;0.00;99.90;;;;;;4973530;28;20532;-53
2023/01/29 02:46:11;;;;;;;20.57;13.20;;;0.00;99.90;;;;;;4972826;28;20930;-53
2023/01/29 02:48:44;;;;;;;13.73;12.40;;;0.00;99.90;;;;;;4974814;28;20472;-53
2023/01/29 02:51:19;;;;;;;18.50;14.10;;;0.00;99.90;;;;;;4973525;28;20481;-53
2023/01/29 02:53:53;;;;;;;14.77;13.17;;;0.00;99.90;;;;;;4973223;28;20513;-54
2023/01/29 02:56:23;;;;;;;15.50;12.77;;;0.00;99.90;;;;;;4973090;28;20485;-53
2023/01/29 02:58:57;;;;;;;13.97;12.57;;;0.00;99.90;;;;;;4982176;28;20486;-53
2023/01/29 03:01:30;;;;;;;15.93;13.97;;;0.10;99.90;;;;;;4989614;28;20491;-53
2023/01/29 03:04:01;;;;;;;15.93;13.97;;;0.10;99.90;;;;;;4972668;28;20449;-53
2023/01/29 03:06:32;;;;;;;19.20;14.50;;;0.10;99.90;;;;;;4981246;28;20876;-53
2023/01/29 03:09:02;;;;;;;15.00;13.27;;;0.10;99.90;;;;;;4972335;28;20524;-52
2023/01/29 03:11:33;;;;;;;16.70;13.43;;;0.10;99.90;;;;;;4970524;28;21049;-53
2023/01/29 03:14:07;;;;;;;14.93;12.63;;;0.00;99.90;;;;;;4971212;28;21052;-53
2023/01/29 03:16:38;;;;;;;15.83;12.57;;;0.10;99.90;;;;;;4973002;28;20539;-53
2023/01/29 03:19:08;;;;;;;17.00;13.10;;;0.10;99.90;;;;;;4971728;28;20449;-53
2023/01/29 03:21:58;;;;;;;16.30;14.17;;;0.10;99.90;;;;;;4966078;28;20987;-53
2023/01/29 03:32:55;;;;;;;16.50;13.70;;;0.10;99.90;;;;;;4966524;28;20469;-53
2023/01/29 03:35:35;;;;;;;20.37;14.17;;;0.10;99.90;;;;;;4971890;28;20500;-53
2023/01/29 03:38:02;;;;;;;18.87;14.50;;;0.10;99.90;;;;;;4953748;29;20464;-54
2023/01/29 03:40:34;;;;;;;19.50;13.80;;;0.00;99.90;;;;;;4959173;28;20535;-53
2023/01/29 03:43:09;;;;;;;16.60;13.60;;;0.00;99.90;;;;;;4964399;28;20499;-53
2023/01/29 03:45:43;;;;;;;15.83;14.13;;;0.00;99.90;;;;;;4972923;28;20448;-54
2023/01/29 03:48:16;;;;;;;17.80;14.53;;;-0.10;91.60;;;;;;4969757;28;20496;-54
2023/01/29 03:50:54;;;;;;;17.10;14.00;;;-0.10;84.60;;;;;;4965043;28;21050;-53
2023/01/29 03:53:25;;;;;;;23.83;15.33;;;-0.10;73.40;;;;;;4974695;28;20511;-54
2023/01/29 03:56:01;;;;;;;17.43;14.40;;;-0.10;70.40;;;;;;4973279;28;20564;-53
2023/01/29 03:58:35;;;;;;;18.70;15.07;;;0.00;64.40;;;;;;4968298;28;20449;-53
2023/01/29 04:01:09;;;;;;;28.00;16.27;;;0.00;62.90;;;;;;4972399;28;20993;-52
2023/01/29 04:03:39;;;;;;;20.23;15.07;;;0.00;58.40;;;;;;4972160;28;20494;-54
2023/01/29 04:06:10;;;;;;;16.90;14.97;;;0.00;57.90;;;;;;4972716;28;20901;-54
2023/01/29 04:08:45;;;;;;;19.50;14.70;;;-0.10;54.40;;;;;;4977560;28;20492;-53
2023/01/29 04:11:15;;;;;;;22.13;16.87;;;0.00;52.60;;;;;;4977297;28;20684;-54
2023/01/29 04:13:42;;;;;;;16.37;14.37;;;0.00;47.30;;;;;;4978407;28;20511;-53
2023/01/29 04:16:15;;;;;;;21.77;15.93;;;-0.10;45.40;;;;;;4976715;28;20488;-53
2023/01/29 04:18:45;;;;;;;21.90;16.77;;;-0.10;39.20;;;;;;4976325;28;20540;-53
2023/01/29 04:21:11;;;;;;;19.33;15.40;;;-0.10;37.80;;;;;;4972888;28;20512;-54
2023/01/29 04:23:38;;;;;;;16.20;14.20;;;-0.10;32.20;;;;;;4972195;28;20551;-53
2023/01/29 04:26:24;;;;;;;19.93;15.40;;;-0.20;25.30;;;;;;4978306;28;20479;-53
2023/01/29 04:29:12;;;;;;;23.07;15.93;;;-0.10;74.50;;;;;;4976100;28;20892;-52
2023/01/29 04:31:50;;;;;;;25.60;17.00;;;-0.10;78.20;;;;;;4976023;28;20481;-52
2023/01/29 04:34:23;;;;;;;21.53;16.17;;;-0.10;93.60;;;;;;4979032;28;20551;-53
2023/01/29 04:37:02;;;;;;;21.00;16.33;;;-0.10;99.90;;;;;;4991141;28;20486;-54
2023/01/29 04:39:34;;;;;;;20.67;16.57;;;-0.10;99.90;;;;;;4986832;28;20472;-55
2023/01/29 04:42:09;;;;;;;21.80;16.20;;;-0.10;99.90;;;;;;4982175;28;20503;-53
2023/01/29 04:44:41;;;;;;;17.77;14.77;;;-0.10;99.90;;;;;;4975739;28;20473;-53
2023/01/29 04:47:18;;;;;;;17.60;14.47;;;-0.10;99.90;;;;;;4970447;28;21026;-54
2023/01/29 04:49:49;;;;;;;19.27;14.63;;;-0.10;99.90;;;;;;4977178;28;20486;-53
2023/01/29 04:52:24;;;;;;;19.13;14.93;;;-0.10;99.90;;;;;;4974490;28;20917;-52
2023/01/29 04:54:59;;;;;;;16.23;14.53;;;-0.10;99.90;;;;;;4972710;28;21003;-53
2023/01/29 04:57:33;;;;;;;17.93;15.20;;;0.00;99.90;;;;;;4973817;28;20460;-54
2023/01/29 05:00:06;;;;;;;19.33;15.50;;;0.00;99.90;;;;;;4974115;28;20894;-54
2023/01/29 05:02:38;;;;;;;20.70;15.97;;;0.00;99.90;;;;;;4972688;28;21010;-53
2023/01/29 05:05:06;;;;;;;18.80;16.47;;;0.00;99.90;;;;;;4958974;28;20555;-52
2023/01/29 05:07:35;;;;;;;17.40;15.40;;;-0.10;99.90;;;;;;4970474;28;20900;-52
2023/01/29 05:10:04;;;;;;;20.20;15.97;;;0.00;99.90;;;;;;4973752;28;20567;-54
2023/01/29 05:12:31;;;;;;;25.63;16.57;;;0.00;99.90;;;;;;4979206;28;20504;-53
2023/01/29 05:15:02;;;;;;;18.33;16.40;;;0.00;99.90;;;;;;4975127;28;21011;-53
2023/01/29 05:17:29;;;;;;;22.27;17.90;;;0.00;99.90;;;;;;4975455;28;20882;-53
2023/01/29 05:19:57;;;;;;;20.53;15.77;;;0.00;99.90;;;;;;4975380;28;20484;-53
2023/01/29 05:22:25;;;;;;;19.23;17.23;;;0.00;99.90;;;;;;4974448;28;20502;-54
2023/01/29 05:24:51;;;;;;;20.17;16.60;;;0.00;99.90;;;;;;4973207;28;21018;-53
2023/01/29 05:30:08;;;;;;;22.50;17.77;;;0.10;99.90;;;;;;4975150;28;20484;-53
2023/01/29 05:32:34;;;;;;;21.63;16.03;;;0.10;99.90;;;;;;4973818;28;20561;-53
2023/01/29 05:35:02;;;;;;;21.63;17.40;;;0.00;99.90;;;;;;4976582;28;20976;-54
2023/01/29 05:37:29;;;;;;;21.60;16.33;;;0.10;99.90;;;;;;4975014;28;20537;-53
2023/01/29 05:39:55;;;;;;;19.60;17.20;;;0.10;99.90;;;;;;4973633;28;21007;-54
2023/01/29 05:42:22;;;;;;;22.57;17.57;;;0.10;99.90;;;;;;4971558;28;20575;-52
2023/01/29 05:44:49;;;;;;;20.93;17.43;;;0.10;99.90;;;;;;4975867;28;20460;-52
2023/01/29 05:47:19;;;;;;;22.87;17.93;;;0.10;99.90;;;;;;4974244;28;20560;-53
2023/01/29 05:49:45;;;;;;;21.17;17.53;;;0.10;99.90;;;;;;4981794;28;20581;-52
2023/01/29 05:52:13;;;;;;;20.10;16.93;;;0.10;99.90;;;;;;4974237;28;20504;-54
2023/01/29 05:54:40;;;;;;;18.40;16.43;;;0.10;99.90;;;;;;4974659;28;20560;-54
2023/01/29 05:57:06;;;;;;;21.07;16.90;;;0.10;99.90;;;;;;4975050;28;20481;-54
2023/01/29 05:59:33;;;;;;;21.90;17.03;;;0.10;99.90;;;;;;4974690;28;20489;-53
2023/01/29 06:01:59;;;;;;;19.43;17.10;;;0.10;99.90;;;;;;4973900;28;20520;-53
2023/01/29 06:04:26;;;;;;;20.40;16.47;;;0.10;99.90;;;;;;4974636;28;20444;-53
2023/01/29 06:06:52;;;;;;;21.43;16.67;;;0.10;99.90;;;;;;4973866;28;20552;-53
2023/01/29 06:09:20;;;;;;;19.37;16.53;;;0.10;99.90;;;;;;4974066;28;20503;-53
2023/01/29 06:11:47;;;;;;;23.33;16.53;;;0.10;99.90;;;;;;4974035;28;20985;-54
2023/01/29 06:14:13;;;;;;;22.63;17.17;;;0.10;99.90;;;;;;4974382;28;20489;-53
2023/01/29 06:16:40;;;;;;;20.27;16.60;;;0.10;99.90;;;;;;4974261;28;20535;-54
2023/01/29 06:19:06;;;;;;;18.93;15.10;;;0.10;99.90;;;;;;4974608;28;20491;-54
2023/01/29 06:21:33;;;;;;;19.23;16.83;;;0.10;99.90;;;;;;4974504;28;20500;-54
2023/01/29 06:23:59;;;;;;;19.53;16.93;;;0.10;99.90;;;;;;4972030;28;20563;-52
2023/01/29 06:26:27;;;;;;;20.07;16.90;;;0.10;99.90;;;;;;4972012;28;20493;-53
2023/01/29 06:28:54;;;;;;;21.77;17.83;;;0.10;99.90;;;;;;4974175;28;20547;-51
2023/01/29 06:31:20;;;;;;;19.97;16.53;;;0.10;99.90;;;;;;4973976;28;20547;-53
2023/01/29 06:33:47;;;;;;;18.80;16.27;;;0.10;99.90;;;;;;4971976;28;20532;-54
2023/01/29 06:36:13;;;;;;;19.27;17.07;;;0.10;99.90;;;;;;4974131;28;20488;-53
2023/01/29 06:38:40;;;;;;;18.13;15.97;;;0.10;99.90;;;;;;4974004;28;21141;-53
2023/01/29 06:41:10;;;;;;;20.73;16.27;;;0.20;99.90;;;;;;4973074;28;20547;-53
2023/01/29 06:43:39;;;;;;;20.90;16.90;;;0.10;99.90;;;;;;4972461;28;20516;-53
2023/01/29 06:46:07;;;;;;;19.40;17.20;;;0.20;99.90;;;;;;4974194;28;20480;-53
2023/01/29 06:48:34;;;;;;;18.40;16.10;;;0.20;99.90;;;;;;4973023;28;20496;-52
2023/01/29 06:51:02;;;;;;;19.93;16.07;;;0.20;99.90;;;;;;4973455;28;21014;-54
2023/01/29 06:53:29;;;;;;;21.67;17.33;;;0.20;99.90;;;;;;4973776;28;20539;-52
2023/01/29 06:55:55;;;;;;;20.70;16.47;;;0.20;99.90;;;;;;4972801;28;20955;-53
2023/01/29 06:58:22;;;;;;;22.80;18.13;;;0.20;99.90;;;;;;4972304;28;21016;-53
2023/01/29 07:00:50;;;;;;;22.97;17.60;;;0.20;99.90;;;;;;4971823;28;21163;-53
2023/01/29 07:03:16;;;;;;;21.97;16.67;;;0.20;99.90;;;;;;4972648;28;20590;-54
2023/01/29 07:05:43;;;;;;;21.63;18.03;;;0.30;99.90;;;;;;4973533;28;20519;-53
2023/01/29 07:08:09;;;;;;;26.90;18.63;;;0.30;99.90;;;;;;4973560;28;20543;-53
2023/01/29 07:10:36;;;;;;;20.90;16.37;;;0.30;99.90;;;;;;4970919;28;20931;-52
2023/01/29 07:13:02;;;;;;;19.67;15.77;;;0.30;99.90;;;;;;4969571;28;20488;-54
2023/01/29 07:15:29;;;;;;;20.73;17.10;;;0.40;99.90;;;;;;4972075;28;20507;-53
2023/01/29 07:17:58;;;;;;;19.10;16.73;;;0.40;99.90;;;;;;4973416;28;20477;-53
2023/01/29 07:20:25;;;;;;;20.57;17.70;;;0.40;99.90;;;;;;4974668;28;20954;-52
2023/01/29 07:22:52;;;;;;;21.03;18.17;;;0.40;99.90;;;;;;4971835;28;20476;-53
2023/01/29 07:25:19;;;;;;;22.77;17.77;;;0.40;99.90;;;;;;4971736;28;20556;-53
2023/01/29 07:27:45;;;;;;;22.80;17.83;;;0.40;99.90;;;;;;4973414;28;20449;-52
2023/01/29 07:30:13;;;;;;;21.23;19.00;;;0.40;99.90;;;;;;4973571;28;20762;-52
2023/01/29 07:32:39;;;;;;;24.70;18.43;;;0.40;99.90;;;;;;4973253;28;20467;-52
2023/01/29 07:35:08;;;;;;;21.60;17.77;;;0.50;99.90;;;;;;4972083;28;20468;-51
2023/01/29 07:37:35;;;;;;;21.40;16.17;;;0.50;99.90;;;;;;4972233;28;20920;-51
2023/01/29 07:40:03;;;;;;;21.17;17.63;;;0.50;99.90;;;;;;4954284;28;20975;-51
2023/01/29 07:42:30;;;;;;;22.63;18.17;;;0.50;99.90;;;;;;4965921;28;20544;-52
2023/01/29 07:44:56;;;;;;;20.50;16.70;;;0.50;99.90;;;;;;4969231;28;20555;-52
2023/01/29 07:47:23;;;;;;;20.43;16.63;;;0.50;99.90;;;;;;4976546;28;21021;-51
2023/01/29 07:49:49;;;;;;;22.53;17.30;;;0.50;99.90;;;;;;4970617;28;20551;-52
2023/01/29 07:52:18;;;;;;;20.47;17.53;;;0.50;99.90;;;;;;4972788;28;20600;-53
2023/01/29 07:54:44;;;;;;;22.70;17.63;;;0.60;99.90;;;;;;4974305;28;20837;-53
2023/01/29 07:57:11;;;;;;;21.87;17.80;;;0.60;99.90;;;;;;4972910;28;20551;-51
2023/01/29 07:59:37;;;;;;;22.77;18.80;;;0.60;99.90;;;;;;4973563;28;20488;-53
2023/01/29 08:02:04;;;;;;;24.13;18.57;;;0.60;99.90;;;;;;4972615;28;20519;-53
2023/01/29 08:04:30;;;;;;;23.37;18.20;;;0.60;99.90;;;;;;4974709;28;20903;-52
2023/01/29 08:06:57;;;;;;;20.90;17.13;;;0.60;99.90;;;;;;4981836;28;20496;-52
2023/01/29 08:09:25;;;;;;;22.10;17.87;;;0.60;99.90;;;;;;4985393;28;20452;-52
2023/01/29 08:11:51;;;;;;;21.37;17.77;;;0.60;99.90;;;;;;4981412;28;20492;-53
2023/01/29 08:14:18;;;;;;;19.90;17.60;;;0.60;99.90;;;;;;4980167;28;20456;-53
2023/01/29 08:16:45;;;;;;;23.63;18.27;;;0.70;99.90;;;;;;4980810;28;20484;-52
2023/01/29 08:19:11;;;;;;;22.17;17.63;;;0.70;99.90;;;;;;4969643;28;20519;-52
2023/01/29 08:21:38;;;;;;;24.50;18.30;;;0.70;99.90;;;;;;4972618;28;20872;-52
2023/01/29 08:24:05;;;;;;;22.17;18.30;;;0.70;99.90;;;;;;4967389;28;20504;-53
2023/01/29 08:26:33;;;;;;;23.37;17.80;;;0.70;99.90;;;;;;4969137;28;20480;-52
2023/01/29 08:28:59;;;;;;;31.30;19.33;;;0.80;99.90;;;;;;4974928;28;20563;-53
2023/01/29 08:31:26;;;;;;;22.23;17.60;;;0.80;99.90;;;;;;4989958;28;20587;-52
2023/01/29 08:33:54;;;;;;;23.70;18.83;;;0.80;99.90;;;;;;4964005;28;20559;-52
2023/01/29 08:36:21;;;;;;;24.33;19.03;;;0.80;99.90;;;;;;4968835;28;20476;-53
2023/01/29 08:38:48;;;;;;;24.37;19.43;;;0.80;99.90;;;;;;4963100;28;20481;-53
2023/01/29 08:41:14;;;;;;;23.23;18.90;;;0.80;99.90;;;;;;4968352;28;20562;-52
2023/01/29 08:43:42;;;;;;;25.20;18.47;;;0.80;99.90;;;;;;4957183;28;20555;-51
2023/01/29 08:46:09;;;;;;;28.57;19.53;;;0.80;99.90;;;;;;4957274;28;20549;-53
2023/01/29 08:48:35;;;;;;;21.00;17.40;;;0.80;99.90;;;;;;4967602;28;20497;-52
2023/01/29 08:51:03;;;;;;;22.73;17.60;;;0.80;99.90;;;;;;4965272;28;20911;-53
2023/01/29 08:53:30;;;;;;;24.80;17.83;;;0.90;99.90;;;;;;4969299;28;20844;-53
2023/01/29 08:55:57;;;;;;;25.37;19.10;;;0.80;99.90;;;;;;4968887;28;20568;-53
2023/01/29 08:58:23;;;;;;;23.27;18.23;;;0.90;99.90;;;;;;4970811;28;21009;-53
2023/01/29 09:00:51;;;;;;;23.87;18.10;;;0.90;99.90;;;;;;4971230;28;20617;-53
2023/01/29 09:03:17;;;;;;;24.13;18.33;;;0.90;99.90;;;;;;4969317;28;20519;-53
2023/01/29 09:05:45;;;;;;;23.53;20.23;;;0.90;99.90;;;;;;4968146;28;22152;-52
2023/01/29 09:08:12;;;;;;;24.93;19.20;;;1.00;99.90;;;;;;4974041;28;20487;-52
2023/01/29 09:10:38;;;;;;;23.87;18.83;;;0.90;99.90;;;;;;4953308;28;20591;-51
2023/01/29 09:13:05;;;;;;;22.80;17.73;;;0.90;99.90;;;;;;4962653;28;20516;-53
2023/01/29 09:15:32;;;;;;;26.63;19.37;;;0.90;99.90;;;;;;4969409;28;20579;-53
2023/01/29 09:18:03;;;;;;;21.90;17.43;;;0.90;99.90;;;;;;4973508;28;20551;-53
2023/01/29 09:20:29;;;;;;;20.90;17.10;;;1.00;99.90;;;;;;4974671;28;20884;-51
2023/01/29 09:22:57;;;;;;;22.63;18.30;;;1.00;99.90;;;;;;4957929;28;20555;-51
2023/01/29 09:25:24;;;;;;;23.90;18.27;;;1.00;99.90;;;;;;4968593;28;20462;-53
2023/01/29 09:27:51;;;;;;;20.13;17.33;;;1.00;99.90;;;;;;4966091;28;20500;-51
2023/01/29 09:30:18;;;;;;;25.73;20.13;;;1.10;99.90;;;;;;4966344;28;20544;-51
2023/01/29 09:32:45;;;;;;;23.87;18.77;;;1.10;99.90;;;;;;4963386;28;21070;-52
2023/01/29 09:35:13;;;;;;;26.30;19.90;;;1.10;99.90;;;;;;4954560;28;20567;-53
2023/01/29 09:37:39;;;;;;;22.80;19.20;;;1.20;99.90;;;;;;4960032;28;20461;-59
2023/01/29 09:40:08;;;;;;;25.13;16.93;;;1.20;99.90;;;;;;4956385;28;20552;-52
2023/01/29 09:42:41;;;;;;;27.50;19.60;;;1.20;99.90;;;;;;4964187;28;20571;-52
2023/01/29 09:45:13;;;;;;;24.73;18.13;;;1.20;99.90;;;;;;4957368;28;20593;-52
2023/01/29 09:47:40;;;;;;;25.50;19.47;;;1.20;99.90;;;;;;4960572;28;20464;-54
2023/01/29 09:50:11;;;;;;;23.93;18.77;;;1.20;99.90;;;;;;4954853;28;20471;-54
2023/01/29 09:52:45;;;;;;;21.90;17.77;;;1.30;99.90;;;;;;4959700;28;20580;-54
2023/01/29 09:55:19;;;;;;;19.73;17.10;;;1.40;94.30;;;;;;4961116;28;20483;-55
2023/01/29 09:57:50;;;;;;;20.10;17.00;;;1.40;99.90;;;;;;4969233;28;20548;-54
2023/01/29 10:00:22;;;;;;;21.13;17.50;;;1.40;78.80;;;;;;4961918;28;20615;-55
2023/01/29 10:03:15;;;;;;;24.23;18.83;;;1.40;85.40;;;;;;4970620;28;20501;-54
2023/01/29 10:05:55;;;;;;;25.07;19.17;;;1.50;83.90;;;;;;4957893;28;20540;-54
2023/01/29 10:08:55;;;;;;;22.50;18.63;;;1.50;22.30;;;;;;4968666;28;20502;-54
2023/01/29 10:11:35;;;;;;;25.03;17.63;;;1.50;25.00;;;;;;4958907;28;20583;-53
2023/01/29 10:14:11;;;;;;;21.37;18.40;;;1.60;26.30;;;;;;4971073;28;20507;-54
2023/01/29 10:16:49;;;;;;;21.40;15.87;;;1.60;25.50;;;;;;4965498;28;20492;-54
2023/01/29 10:19:40;;;;;;;21.03;17.03;;;1.70;28.60;;;;;;4968706;28;20551;-54
2023/01/29 10:22:40;;;;;;;26.50;18.70;;;1.70;45.80;;;;;;4968056;28;20563;-55
2023/01/29 10:25:13;;;;;;;20.97;16.60;;;1.70;36.20;;;;;;4966987;28;20954;-54
2023/01/29 10:27:44;;;;;;;21.53;17.03;;;1.80;34.30;;;;;;4973146;28;20551;-54
2023/01/29 10:30:23;;;;;;;24.03;16.50;;;1.80;42.30;;;;;;4968904;28;20465;-54
2023/01/29 10:32:50;;;;;;;21.30;16.83;;;1.90;37.50;;;;;;4970591;28;20579;-54
2023/01/29 10:35:21;;;;;;;25.40;17.30;;;1.90;40.10;;;;;;4972426;28;20922;-54
2023/01/29 10:37:52;;;;;;;20.57;15.90;;;2.00;47.90;;;;;;4970893;28;21018;-54
2023/01/29 10:43:53;;;;;;;20.00;15.67;;;2.10;47.70;;;;;;4969287;28;20449;-53
2023/01/29 10:46:31;;;;;;;18.53;16.37;;;2.30;56.10;;;;;;4983835;28;20468;-53
2023/01/29 10:49:08;;;;;;;31.83;16.53;;;2.30;67.70;;;;;;4982707;28;20491;-53
2023/01/29 10:51:50;;;;;;;20.63;16.40;;;2.50;63.10;;;;;;4982398;28;20515;-53
2023/01/29 10:54:31;;;;;;;17.43;15.20;;;2.60;66.40;;;;;;4954111;28;20556;-52
2023/01/29 10:57:08;;;;;;;17.37;13.90;;;2.70;82.30;;;;;;4963975;28;20555;-52
2023/01/29 10:59:55;;;;;;;19.17;15.50;;;2.70;95.40;;;;;;4955213;28;20585;-52
2023/01/29 11:02:22;;;;;;;16.97;15.17;;;2.70;81.20;;;;;;4901654;28;60139;-52
2023/01/29 11:04:49;;;;;;;19.00;16.03;;;2.90;84.60;;;;;;4949072;28;20555;-52
2023/01/29 11:07:18;;;;;;;16.47;13.80;;;2.90;89.20;;;;;;4952126;28;20544;-52
2023/01/29 11:09:50;;;;;;;20.43;15.83;;;3.00;90.70;;;;;;4947079;28;20549;-53
2023/01/29 11:12:20;;;;;;;21.17;15.50;;;3.00;91.70;;;;;;4948083;28;20588;-52
2023/01/29 11:14:51;;;;;;;15.53;13.33;;;2.90;99.90;;;;;;4948770;29;20570;-52
2023/01/29 11:17:20;;;;;;;18.67;14.60;;;2.90;99.90;;;;;;4949966;28;20541;-52
2023/01/29 11:19:48;;;;;;;17.47;14.60;;;3.00;89.30;;;;;;4952863;28;20657;-52
2023/01/29 11:22:18;;;;;;;19.07;14.40;;;3.10;91.00;;;;;;4948596;28;21075;-52
2023/01/29 11:24:45;;;;;;;16.70;14.30;;;3.10;95.70;;;;;;4949956;29;20506;-52
2023/01/29 11:27:20;;;;;;;22.23;17.17;;;3.10;99.90;;;;;;4950220;28;20551;-52
2023/01/29 11:29:49;;;;;;;23.10;15.33;;;3.10;99.90;;;;;;4949374;28;20904;-53
2023/01/29 11:32:27;;;;;;;19.17;16.30;;;3.10;99.90;;;;;;4941512;28;20539;-52
2023/01/29 11:35:01;;;;;;;17.07;14.43;;;3.20;99.90;;;;;;4940549;28;20560;-52
2023/01/29 11:37:33;;;;;;;16.27;13.63;;;3.40;99.90;;;;;;4945605;28;20556;-54
2023/01/29 11:40:00;;;;;;;16.47;14.53;;;3.40;99.90;;;;;;4934552;28;20523;-53
2023/01/29 11:42:31;;;;;;;17.77;13.57;;;3.40;99.90;;;;;;4937220;28;20549;-54
2023/01/29 11:44:59;;;;;;;18.50;13.87;;;3.40;99.90;;;;;;4938598;28;20472;-54
2023/01/29 11:47:27;;;;;;;19.30;12.40;;;3.40;99.90;;;;;;4947842;28;20465;-54
2023/01/29 11:49:56;;;;;;;21.93;14.03;;;3.40;99.90;;;;;;4951506;28;20577;-52
2023/01/29 11:52:25;;;;;;;15.80;13.70;;;3.40;99.90;;;;;;4950410;28;20572;-52
2023/01/29 11:54:56;;;;;;;16.17;14.30;;;3.30;99.90;;;;;;4942697;28;20529;-52
2023/01/29 11:57:33;;;;;;;17.10;14.43;;;3.40;99.90;;;;;;4946561;28;20471;-52
2023/01/29 12:00:05;;;;;;;23.10;14.27;;;3.40;99.90;;;;;;4943818;28;20941;-52
2023/01/29 12:02:35;;;;;;;14.50;13.00;;;3.40;99.90;;;;;;4945213;28;20515;-52
2023/01/29 12:05:06;;;;;;;19.40;15.23;;;3.40;99.90;;;;;;4940478;28;20462;-53
2023/01/29 12:07:34;;;;;;;15.03;13.23;;;3.50;99.90;;;;;;4939072;28;20504;-52
2023/01/29 12:10:02;;;;;;;18.83;13.73;;;3.50;99.90;;;;;;4947138;28;20588;-53
2023/01/29 12:12:38;;;;;;;14.90;13.20;;;3.50;99.90;;;;;;4949397;28;20519;-52
2023/01/29 12:15:19;;;;;;;16.37;13.13;;;3.50;99.90;;;;;;4947763;28;20477;-52
2023/01/29 12:17:53;;;;;;;17.30;12.93;;;3.50;99.90;;;;;;4949740;28;20484;-53
2023/01/29 12:20:25;;;;;;;17.03;13.00;;;3.40;99.90;;;;;;4947143;28;20571;-52
2023/01/29 12:22:56;;;;;;;17.20;12.70;;;3.40;99.90;;;;;;4944702;28;20584;-52
2023/01/29 12:25:31;;;;;;;17.10;13.80;;;3.30;99.90;;;;;;4948409;28;20484;-52
2023/01/29 12:28:03;;;;;;;15.17;12.53;;;3.20;99.90;;;;;;4949161;28;20919;-52
2023/01/29 12:30:39;;;;;;;19.40;12.80;;;3.20;99.90;;;;;;4945421;28;20561;-52
2023/01/29 12:33:14;;;;;;;15.00;13.47;;;3.10;99.90;;;;;;4950915;28;20660;-52
2023/01/29 12:35:45;;;;;;;19.10;13.60;;;3.10;99.90;;;;;;4948043;28;20505;-52
2023/01/29 12:38:17;;;;;;;14.83;12.80;;;3.10;99.90;;;;;;4948959;28;20492;-52
2023/01/29 12:40:47;;;;;;;19.63;13.00;;;3.10;99.90;;;;;;4953994;28;20891;-52
2023/01/29 12:43:17;;;;;;;15.80;13.33;;;3.10;99.90;;;;;;4947298;28;20627;-53
2023/01/29 12:45:47;;;;;;;16.13;12.67;;;3.10;99.90;;;;;;4947678;28;20564;-52
2023/01/29 12:48:20;;;;;;;17.67;13.23;;;3.10;99.90;;;;;;4953877;28;21038;-52
2023/01/29 12:50:50;;;;;;;16.50;14.13;;;3.10;99.90;;;;;;4953543;28;20583;-52
2023/01/29 12:53:26;;;;;;;18.13;14.10;;;3.00;99.90;;;;;;4956848;28;20614;-52
2023/01/29 12:55:57;;;;;;;13.97;12.47;;;3.00;99.90;;;;;;4950319;28;20552;-52
2023/01/29 12:58:29;;;;;;;15.90;13.00;;;3.00;99.90;;;;;;4945119;28;20635;-52
2023/01/29 13:01:00;;;;;;;20.20;13.57;;;3.00;99.90;;;;;;4952808;28;21069;-52
2023/01/29 13:03:33;;;;;;;15.70;13.27;;;3.00;99.90;;;;;;4951491;28;20560;-52
2023/01/29 13:06:03;;;;;;;16.30;13.40;;;3.00;99.90;;;;;;4947004;28;20904;-52
2023/01/29 13:08:34;;;;;;;21.93;13.00;;;3.00;99.90;;;;;;4946705;28;20567;-53
2023/01/29 13:11:08;;;;;;;19.20;13.90;;;3.10;99.90;;;;;;4950332;28;21050;-53
2023/01/29 13:13:42;;;;;;;17.03;12.50;;;3.10;99.90;;;;;;4942090;28;20481;-52
2023/01/29 13:16:14;;;;;;;17.10;12.73;;;3.00;99.90;;;;;;4937171;28;20551;-51
2023/01/29 13:18:44;;;;;;;14.80;12.60;;;3.00;99.90;;;;;;4949727;28;20964;-52
2023/01/29 13:21:14;;;;;;;17.53;12.77;;;3.10;99.90;;;;;;4948811;28;20598;-52